createdAt,value
2022-11-27T00:01:36.407Z,71.00
2022-11-27T00:04:09.442Z,68.40
2022-11-27T00:06:42.932Z,69.60
2022-11-27T00:09:14.800Z,72.80
2022-11-27T00:11:44.526Z,69.70
2022-11-27T00:14:17.034Z,69.20
2022-11-27T00:16:45.352Z,72.90
2022-11-27T00:19:13.435Z,68.80
2022-11-27T00:21:41.592Z,68.20
2022-11-27T00:24:12.057Z,69.40
2022-11-27T00:26:40.191Z,67.90
2022-11-27T00:29:09.163Z,70.20
2022-11-27T00:31:38.050Z,67.60
2022-11-27T00:34:08.865Z,68.00
2022-11-27T00:36:38.085Z,66.20
2022-11-27T00:39:07.094Z,64.40
2022-11-27T00:41:35.558Z,69.40
2022-11-27T00:44:04.465Z,67.00
2022-11-27T00:46:35.731Z,64.30
2022-11-27T00:49:06.740Z,67.30
2022-11-27T00:51:36.437Z,65.60
2022-11-27T00:54:05.094Z,65.70
2022-11-27T00:56:36.194Z,63.60
2022-11-27T00:59:06.646Z,66.60
2022-11-27T01:01:41.765Z,70.80
2022-11-27T01:04:14.237Z,66.10
2022-11-27T01:06:43.307Z,63.50
2022-11-27T01:09:16.539Z,62.60
2022-11-27T01:11:44.670Z,63.00
2022-11-27T01:14:20.270Z,59.70
2022-11-27T01:16:48.370Z,62.40
2022-11-27T01:19:16.772Z,58.60
2022-11-27T01:21:45.795Z,59.00
2022-11-27T01:24:15.681Z,59.60
2022-11-27T01:26:44.579Z,59.90
2022-11-27T01:29:13.122Z,59.20
2022-11-27T01:31:41.439Z,58.60
2022-11-27T01:34:15.448Z,58.90
2022-11-27T01:36:43.922Z,56.40
2022-11-27T01:39:18.470Z,58.60
2022-11-27T01:41:48.788Z,55.80
2022-11-27T01:44:26.330Z,58.60
2022-11-27T01:47:07.915Z,57.10
2022-11-27T01:49:38.377Z,53.70
2022-11-27T01:52:29.795Z,52.80
2022-11-27T01:55:21.909Z,52.30
2022-11-27T01:57:59.226Z,50.60
2022-11-27T02:00:28.045Z,53.80
2022-11-27T02:02:56.299Z,54.80
2022-11-27T02:05:28.864Z,52.60
2022-11-27T02:07:59.188Z,52.10
2022-11-27T02:10:51.653Z,52.00
2022-11-27T02:13:31.155Z,55.70
2022-11-27T02:16:24.329Z,55.70
2022-11-27T02:19:27.189Z,55.90
2022-11-27T02:22:17.335Z,59.80
2022-11-27T02:25:07.519Z,55.40
2022-11-27T02:28:11.140Z,56.50
2022-11-27T02:30:46.368Z,57.30
2022-11-27T02:33:20.034Z,60.00
2022-11-27T02:36:07.757Z,55.60
2022-11-27T02:38:45.195Z,59.20
2022-11-27T02:41:19.880Z,62.50
2022-11-27T02:43:51.006Z,60.90
2022-11-27T02:46:21.172Z,61.10
2022-11-27T02:48:52.959Z,59.60
2022-11-27T02:51:25.739Z,62.00
2022-11-27T02:54:01.930Z,59.50
2022-11-27T02:56:32.731Z,61.10
2022-11-27T02:59:06.839Z,60.20
2022-11-27T03:01:41.676Z,58.40
2022-11-27T03:04:17.990Z,60.50
2022-11-27T03:06:54.904Z,60.40
2022-11-27T03:09:49.565Z,58.10
2022-11-27T03:12:19.486Z,61.80
2022-11-27T03:14:48.902Z,60.30
2022-11-27T03:17:41.232Z,60.00
2022-11-27T03:20:25.871Z,57.90
2022-11-27T03:22:57.558Z,62.60
2022-11-27T03:25:25.746Z,61.80
2022-11-27T03:28:08.500Z,68.10
2022-11-27T03:30:38.158Z,64.70
2022-11-27T03:33:08.316Z,65.80
2022-11-27T03:35:39.283Z,64.80
2022-11-27T03:38:07.366Z,64.60
2022-11-27T03:41:10.206Z,62.60
2022-11-27T03:43:46.931Z,62.80
2022-11-27T03:46:32.576Z,65.50
2022-11-27T03:49:15.444Z,69.70
2022-11-27T03:52:03.695Z,68.50
2022-11-27T03:54:49.740Z,70.60
2022-11-27T03:57:34.182Z,71.80
2022-11-27T04:00:07.347Z,68.90
2022-11-27T04:02:47.932Z,72.00
2022-11-27T04:05:16.902Z,72.90
2022-11-27T04:07:44.954Z,72.10
2022-11-27T04:10:13.176Z,71.80
2022-11-27T04:12:41.233Z,77.20
2022-11-27T04:15:09.701Z,79.60
2022-11-27T04:17:37.730Z,79.00
2022-11-27T04:20:06.996Z,78.60
2022-11-27T04:22:35.414Z,83.20
2022-11-27T04:25:04.173Z,86.50
2022-11-27T04:27:32.583Z,92.70
2022-11-27T04:30:00.831Z,85.40
2022-11-27T04:32:29.267Z,88.60
2022-11-27T04:34:57.483Z,90.80
2022-11-27T04:37:25.926Z,88.90
2022-11-27T04:39:54.057Z,91.00
2022-11-27T04:42:22.605Z,91.40
2022-11-27T04:44:50.805Z,88.30
2022-11-27T04:47:19.074Z,95.10
2022-11-27T04:49:47.320Z,91.20
2022-11-27T04:52:15.483Z,88.50
2022-11-27T04:54:43.722Z,90.40
2022-11-27T04:57:11.712Z,87.50
2022-11-27T04:59:39.759Z,88.40
2022-11-27T05:02:07.872Z,84.90
2022-11-27T05:04:35.963Z,90.20
2022-11-27T05:07:04.061Z,86.20
2022-11-27T05:09:32.195Z,84.40
2022-11-27T05:12:00.766Z,95.20
2022-11-27T05:14:29.393Z,91.60
2022-11-27T05:16:59.370Z,92.90
2022-11-27T05:19:30.686Z,97.50
2022-11-27T05:21:59.123Z,96.30
2022-11-27T05:24:29.172Z,95.70
2022-11-27T05:26:58.070Z,92.50
2022-11-27T05:29:26.551Z,95.30
2022-11-27T05:31:54.730Z,88.40
2022-11-27T05:34:23.215Z,91.80
2022-11-27T05:36:51.217Z,93.20
2022-11-27T05:39:19.264Z,91.40
2022-11-27T05:41:47.457Z,93.10
2022-11-27T05:44:15.886Z,91.10
2022-11-27T05:46:44.336Z,87.00
2022-11-27T05:49:15.005Z,90.60
2022-11-27T05:51:50.370Z,87.40
2022-11-27T05:54:19.478Z,89.10
2022-11-27T05:56:47.739Z,85.90
2022-11-27T05:59:16.301Z,84.60
2022-11-27T06:01:44.491Z,86.50
2022-11-27T06:04:12.714Z,86.00
2022-11-27T06:06:40.970Z,86.30
2022-11-27T06:09:12.790Z,85.90
2022-11-27T06:11:42.905Z,82.80
2022-11-27T06:14:11.933Z,79.50
2022-11-27T06:16:40.133Z,82.40
2022-11-27T06:19:09.227Z,83.60
2022-11-27T06:21:37.488Z,82.10
2022-11-27T06:24:06.049Z,89.00
2022-11-27T06:26:34.506Z,87.90
2022-11-27T06:29:03.404Z,83.90
2022-11-27T06:31:33.223Z,82.30
2022-11-27T06:34:02.524Z,79.50
2022-11-27T06:36:34.247Z,83.70
2022-11-27T06:39:05.743Z,83.00
2022-11-27T06:41:34.388Z,87.10
2022-11-27T06:44:02.630Z,84.60
2022-11-27T06:46:30.817Z,84.90
2022-11-27T06:48:59.724Z,88.40
2022-11-27T06:51:30.342Z,83.30
2022-11-27T06:54:02.341Z,83.90
2022-11-27T06:56:31.773Z,90.10
2022-11-27T06:59:05.738Z,84.70
2022-11-27T07:01:35.190Z,88.20
2022-11-27T07:04:03.345Z,82.80
2022-11-27T07:06:31.539Z,84.30
2022-11-27T07:08:59.806Z,94.10
2022-11-27T07:11:30.470Z,100.10
2022-11-27T07:14:02.800Z,108.90
2022-11-27T07:16:36.830Z,108.90
2022-11-27T07:19:08.740Z,119.40
2022-11-27T07:21:40.894Z,131.00
2022-11-27T07:24:09.013Z,136.60
2022-11-27T07:26:36.978Z,136.10
2022-11-27T07:29:05.229Z,131.50
2022-11-27T07:31:33.401Z,131.80
2022-11-27T07:34:01.927Z,131.90
2022-11-27T07:36:31.001Z,143.50
2022-11-27T07:38:59.220Z,132.80
2022-11-27T07:41:33.517Z,85.30
2022-11-27T07:44:03.255Z,85.60
2022-11-27T07:46:31.429Z,84.40
2022-11-27T07:49:00.930Z,81.90
2022-11-27T07:51:30.170Z,80.60
2022-11-27T07:54:00.049Z,82.40
2022-11-27T07:56:28.134Z,82.20
2022-11-27T07:58:57.465Z,83.70
2022-11-27T08:01:25.837Z,83.10
2022-11-27T08:03:53.946Z,83.60
2022-11-27T08:06:27.351Z,97.40
2022-11-27T08:08:58.620Z,90.70
2022-11-27T08:11:30.238Z,95.70
2022-11-27T08:14:01.386Z,94.70
2022-11-27T08:16:30.804Z,93.70
2022-11-27T08:18:59.339Z,98.40
2022-11-27T08:21:28.748Z,97.10
2022-11-27T08:23:58.271Z,102.20
2022-11-27T08:27:48.696Z,99.80
2022-11-27T08:30:16.946Z,98.70
2022-11-27T08:32:45.488Z,111.40
2022-11-27T08:35:13.901Z,112.80
2022-11-27T08:37:42.290Z,104.90
2022-11-27T08:40:11.140Z,110.10
2022-11-27T08:42:39.255Z,102.80
2022-11-27T08:45:08.128Z,99.90
2022-11-27T08:47:36.494Z,98.70
2022-11-27T08:50:05.209Z,98.40
2022-11-27T08:52:33.345Z,103.40
2022-11-27T08:55:01.625Z,97.60
2022-11-27T08:57:29.839Z,98.30
2022-11-27T08:59:58.047Z,93.90
2022-11-27T09:02:26.242Z,98.50
2022-11-27T09:04:54.471Z,91.00
2022-11-27T09:07:23.003Z,95.50
2022-11-27T09:09:50.999Z,95.60
2022-11-27T09:12:19.190Z,92.70
2022-11-27T09:14:49.541Z,91.00
2022-11-27T09:17:18.918Z,88.40
2022-11-27T09:19:47.586Z,91.30
2022-11-27T09:22:15.902Z,88.20
2022-11-27T09:24:44.119Z,91.40
2022-11-27T09:27:12.280Z,91.50
2022-11-27T09:29:40.458Z,97.00
2022-11-27T09:32:08.681Z,96.20
2022-11-27T09:34:37.603Z,93.10
2022-11-27T09:37:06.361Z,97.70
2022-11-27T09:39:34.931Z,99.20
2022-11-27T09:42:09.795Z,103.00
2022-11-27T09:44:45.729Z,103.00
2022-11-27T09:47:41.909Z,106.00
2022-11-27T09:50:10.557Z,102.40
2022-11-27T09:52:41.296Z,100.50
2022-11-27T09:55:15.536Z,99.40
2022-11-27T09:57:54.035Z,96.60
2022-11-27T10:00:22.898Z,93.70
2022-11-27T10:02:51.546Z,92.00
2022-11-27T10:05:26.843Z,96.60
2022-11-27T10:08:03.245Z,93.90
2022-11-27T10:10:59.444Z,85.40
2022-11-27T10:13:46.179Z,82.30
2022-11-27T10:16:23.076Z,80.70
2022-11-27T10:19:22.606Z,82.40
2022-11-27T10:22:21.164Z,80.10
2022-11-27T10:25:21.173Z,78.10
2022-11-27T10:28:11.270Z,80.10
2022-11-27T10:30:55.110Z,80.00
2022-11-27T10:33:33.483Z,76.70
2022-11-27T10:36:01.700Z,74.60
2022-11-27T10:38:35.265Z,76.30
2022-11-27T10:41:07.729Z,75.50
2022-11-27T10:43:37.960Z,75.80
2022-11-27T10:46:21.972Z,76.90
2022-11-27T10:48:50.415Z,72.20
2022-11-27T10:51:31.402Z,73.50
2022-11-27T10:54:01.795Z,73.50
2022-11-27T10:57:01.275Z,74.10
2022-11-27T10:59:37.924Z,74.50
2022-11-27T11:02:09.148Z,72.00
2022-11-27T11:04:38.936Z,71.70
2022-11-27T11:07:29.515Z,69.90
2022-11-27T11:09:57.955Z,70.30
2022-11-27T11:12:26.175Z,70.10
2022-11-27T11:15:01.857Z,72.40
2022-11-27T11:17:37.640Z,70.30
2022-11-27T11:20:26.020Z,68.30
2022-11-27T11:22:54.498Z,68.70
2022-11-27T11:25:22.635Z,70.90
2022-11-27T11:27:52.700Z,70.30
2022-11-27T11:30:24.056Z,67.50
2022-11-27T11:33:03.408Z,70.30
2022-11-27T11:35:35.404Z,66.80
2022-11-27T11:38:07.897Z,66.90
2022-11-27T11:40:38.156Z,65.80
2022-11-27T11:43:23.323Z,66.50
2022-11-27T11:45:51.540Z,67.50
2022-11-27T11:48:24.296Z,62.80
2022-11-27T11:51:07.617Z,69.90
2022-11-27T11:53:40.579Z,66.90
2022-11-27T11:56:11.761Z,61.70
2022-11-27T11:59:01.633Z,65.60
2022-11-27T12:01:46.454Z,62.90
2022-11-27T12:04:33.927Z,64.70
2022-11-27T12:07:04.592Z,64.40
2022-11-27T12:09:46.601Z,61.10
2022-11-27T12:12:43.940Z,62.50
2022-11-27T12:15:17.323Z,63.00
2022-11-27T12:18:26.339Z,65.00
2022-11-27T12:21:05.190Z,64.20
2022-11-27T12:23:45.156Z,60.80
2022-11-27T12:26:18.820Z,63.80
2022-11-27T12:28:59.181Z,63.70
2022-11-27T12:31:42.006Z,62.80
2022-11-27T12:34:38.487Z,65.50
2022-11-27T12:37:26.340Z,63.60
2022-11-27T12:40:18.493Z,65.90
2022-11-27T12:43:09.636Z,66.30
2022-11-27T12:45:53.821Z,65.00
2022-11-27T12:48:39.760Z,68.40
2022-11-27T12:51:16.426Z,67.80
2022-11-27T12:54:04.187Z,68.40
2022-11-27T12:56:41.846Z,67.80
2022-11-27T12:59:25.732Z,64.10
2022-11-27T13:02:09.200Z,66.10
2022-11-27T13:04:45.204Z,66.20
2022-11-27T13:07:45.849Z,66.00
2022-11-27T13:10:28.762Z,66.30
2022-11-27T13:13:23.061Z,67.40
2022-11-27T13:16:11.616Z,67.40
2022-11-27T13:18:55.298Z,66.00
2022-11-27T13:21:30.212Z,65.70
2022-11-27T13:24:12.840Z,65.00
2022-11-27T13:26:55.097Z,68.10
2022-11-27T13:29:34.549Z,65.40
2022-11-27T13:32:05.199Z,65.10
2022-11-27T13:34:43.173Z,65.30
2022-11-27T13:37:42.009Z,64.00
2022-11-27T13:40:12.832Z,65.70
2022-11-27T13:42:45.544Z,63.90
2022-11-27T13:45:44.115Z,65.50
2022-11-27T13:48:38.758Z,65.30
2022-11-27T13:51:10.286Z,65.40
2022-11-27T13:53:41.095Z,67.20
2022-11-27T13:56:10.067Z,67.40
2022-11-27T13:58:42.259Z,65.80
2022-11-27T14:01:19.513Z,71.60
2022-11-27T14:03:48.965Z,66.20
2022-11-27T14:06:19.084Z,69.00
2022-11-27T14:08:59.605Z,67.20
2022-11-27T14:11:44.529Z,65.50
2022-11-27T14:14:23.443Z,66.70
2022-11-27T14:16:59.021Z,67.30
2022-11-27T14:19:59.747Z,70.40
2022-11-27T14:22:48.493Z,75.70
2022-11-27T14:25:30.188Z,79.20
2022-11-27T14:28:30.803Z,71.20
2022-11-27T14:31:01.964Z,66.50
2022-11-27T14:33:59.707Z,67.30
2022-11-27T14:36:28.543Z,71.40
2022-11-27T14:38:57.191Z,68.10
2022-11-27T14:41:27.407Z,70.60
2022-11-27T14:44:02.788Z,69.80
2022-11-27T14:46:36.262Z,82.50
2022-11-27T14:49:04.708Z,75.40
2022-11-27T14:51:35.905Z,74.20
2022-11-27T14:54:11.400Z,69.60
2022-11-27T14:56:43.606Z,74.40
2022-11-27T14:59:23.556Z,73.70
2022-11-27T15:02:07.443Z,77.30
2022-11-27T15:04:39.147Z,77.80
2022-11-27T15:07:45.225Z,75.00
2022-11-27T15:10:22.253Z,76.70
2022-11-27T15:12:51.161Z,74.00
2022-11-27T15:15:42.101Z,81.40
2022-11-27T15:18:27.653Z,77.80
2022-11-27T15:20:57.335Z,80.70
2022-11-27T15:23:31.719Z,104.60
2022-11-27T15:25:59.858Z,89.20
2022-11-27T15:28:32.510Z,90.60
2022-11-27T15:31:01.276Z,88.70
2022-11-27T15:33:32.575Z,89.60
2022-11-27T15:36:20.063Z,90.10
2022-11-27T15:38:51.333Z,92.40
2022-11-27T15:41:26.165Z,93.50
2022-11-27T15:43:55.799Z,95.90
2022-11-27T15:46:30.380Z,96.90
2022-11-27T15:48:58.946Z,96.90
2022-11-27T15:51:26.939Z,95.90
2022-11-27T15:53:55.127Z,102.00
2022-11-27T15:56:23.199Z,96.00
2022-11-27T15:58:51.339Z,104.50
2022-11-27T16:01:19.428Z,103.50
2022-11-27T16:21:35.308Z,91.60
2022-11-27T16:26:19.260Z,87.80
2022-11-27T16:29:05.807Z,92.70
2022-11-27T16:31:52.173Z,94.00
2022-11-27T16:34:37.729Z,97.00
2022-11-27T16:39:56.780Z,89.40
2022-11-27T16:54:49.224Z,86.90
2022-11-27T16:57:51.363Z,108.60
2022-11-27T17:01:48.139Z,97.00
2022-11-27T17:05:51.549Z,102.60
2022-11-27T17:10:15.104Z,95.50
2022-11-27T17:14:26.951Z,90.80
2022-11-27T17:17:53.873Z,95.60
2022-11-27T17:21:50.625Z,104.90
2022-11-27T17:36:37.162Z,118.70
2022-11-27T17:39:36.034Z,117.10
2022-11-27T17:44:04.796Z,108.20
2022-11-27T17:48:19.393Z,102.10
2022-11-27T17:51:42.265Z,102.10
2022-11-27T17:54:28.650Z,120.00
2022-11-27T17:57:15.109Z,126.20
2022-11-27T18:00:04.245Z,145.80
2022-11-27T18:02:50.662Z,124.50
2022-11-27T18:05:40.690Z,123.30
2022-11-27T18:08:27.390Z,137.00
2022-11-27T18:11:20.491Z,129.20
2022-11-27T18:14:07.212Z,134.10
2022-11-27T18:16:53.644Z,126.30
2022-11-27T18:19:40.192Z,126.20
2022-11-27T18:22:27.128Z,129.10
2022-11-27T18:25:13.943Z,126.80
2022-11-27T18:28:02.630Z,134.80
2022-11-27T18:30:49.120Z,132.90
2022-11-27T18:33:36.422Z,134.00
2022-11-27T18:36:23.851Z,133.70
2022-11-27T18:39:10.482Z,136.80
2022-11-27T18:41:57.016Z,134.10
2022-11-27T18:44:45.016Z,134.90
2022-11-27T18:47:33.590Z,141.40
2022-11-27T18:50:21.143Z,143.40
2022-11-27T18:53:15.211Z,147.10
2022-11-27T18:56:08.126Z,141.20
2022-11-27T18:58:55.352Z,146.70
2022-11-27T19:01:45.047Z,152.00
2022-11-27T19:04:34.341Z,152.70
2022-11-27T19:11:38.481Z,158.80
2022-11-27T19:14:25.162Z,149.60
2022-11-27T19:17:11.897Z,151.30
2022-11-27T19:20:02.308Z,157.60
2022-11-27T19:22:48.849Z,166.60
2022-11-27T19:25:39.865Z,163.30
2022-11-27T19:28:26.537Z,161.60
2022-11-27T19:31:16.184Z,165.50
2022-11-27T19:34:08.775Z,161.30
2022-11-27T19:36:58.910Z,159.00
2022-11-27T19:39:45.917Z,157.50
2022-11-27T19:42:33.058Z,161.70
2022-11-27T19:45:30.167Z,158.10
2022-11-27T19:48:22.699Z,157.20
2022-11-27T19:51:12.962Z,163.30
2022-11-27T19:54:05.645Z,160.10
2022-11-27T19:56:55.374Z,166.80
2022-11-27T19:59:43.082Z,167.60
2022-11-27T20:02:31.817Z,170.50
2022-11-27T20:05:19.516Z,179.40
2022-11-27T20:08:06.100Z,181.80
2022-11-27T20:10:52.564Z,187.10
2022-11-27T20:13:39.730Z,186.60
2022-11-27T20:16:26.800Z,199.80
2022-11-27T20:19:13.622Z,194.30
2022-11-27T20:22:00.335Z,198.40
2022-11-27T20:25:11.132Z,190.80
2022-11-27T20:27:53.327Z,187.70
2022-11-27T20:30:41.181Z,191.30
2022-11-27T20:33:29.170Z,198.10
2022-11-27T20:36:19.561Z,205.20
2022-11-27T20:39:06.472Z,190.20
2022-11-27T20:41:58.767Z,200.70
2022-11-27T20:44:45.938Z,197.10
2022-11-27T20:47:32.399Z,193.90
2022-11-27T20:50:22.633Z,198.90
2022-11-27T20:53:09.422Z,194.70
2022-11-27T20:55:56.141Z,211.10
2022-11-27T20:58:44.264Z,197.80
2022-11-27T21:01:33.792Z,191.50
2022-11-27T21:04:26.175Z,193.30
2022-11-27T21:07:14.705Z,187.20
2022-11-27T21:10:01.569Z,191.90
2022-11-27T21:12:50.228Z,192.60
2022-11-27T21:15:36.685Z,192.80
2022-11-27T21:18:22.925Z,190.70
2022-11-27T21:21:12.543Z,198.80
2022-11-27T21:23:59.948Z,198.70
2022-11-27T21:26:48.405Z,196.60
2022-11-27T21:29:36.062Z,199.50
2022-11-27T21:32:22.765Z,200.70
2022-11-27T21:35:09.589Z,198.50
2022-11-27T21:37:56.326Z,195.80
2022-11-27T21:40:43.618Z,195.70
2022-11-27T21:43:31.695Z,207.70
2022-11-27T21:46:20.122Z,197.80
2022-11-27T21:49:06.703Z,196.70
2022-11-27T21:51:54.051Z,203.10
2022-11-27T21:54:45.039Z,194.10
2022-11-27T21:57:31.756Z,190.50
2022-11-27T22:00:18.758Z,185.90
2022-11-27T22:03:05.384Z,185.20
2022-11-27T22:06:05.130Z,172.60
2022-11-27T22:08:54.295Z,175.10
2022-11-27T22:11:41.258Z,166.90
2022-11-27T22:14:27.301Z,162.80
2022-11-27T22:17:14.109Z,168.10
2022-11-27T22:20:00.683Z,171.60
2022-11-27T22:22:47.395Z,178.90
2022-11-27T22:25:33.609Z,171.40
2022-11-27T22:28:21.141Z,170.30
2022-11-27T22:31:13.097Z,166.70
2022-11-27T22:34:00.548Z,157.50
2022-11-27T22:36:49.836Z,155.30
2022-11-27T22:39:36.002Z,161.50
2022-11-27T22:42:22.741Z,154.60
2022-11-27T22:45:11.805Z,152.60
2022-11-27T22:47:58.424Z,152.70
2022-11-27T22:50:44.867Z,150.80
2022-11-27T22:53:31.624Z,152.00
2022-11-27T22:56:20.151Z,164.70
2022-11-27T23:02:14.014Z,164.60
2022-11-27T23:05:03.953Z,159.60
2022-11-27T23:07:50.516Z,153.90
2022-11-27T23:10:38.722Z,166.50
2022-11-27T23:13:25.084Z,153.70
2022-11-27T23:16:12.471Z,156.10
2022-11-27T23:18:59.159Z,155.00
2022-11-27T23:21:45.916Z,159.00
2022-11-27T23:24:33.898Z,164.10
2022-11-27T23:27:20.925Z,151.50
2022-11-27T23:30:08.383Z,153.40
2022-11-27T23:32:55.187Z,158.50
2022-11-27T23:35:41.946Z,153.90
2022-11-27T23:38:32.126Z,149.80
2022-11-27T23:41:20.941Z,142.60
2022-11-27T23:44:07.862Z,145.70
2022-11-27T23:46:55.547Z,155.30
2022-11-27T23:49:42.876Z,145.50
2022-11-27T23:52:29.651Z,147.90
2022-11-27T23:55:16.536Z,153.60
2022-11-27T23:58:03.589Z,150.10
